PWSweather.com
Personal Weather Stations
Station Observations
SELKIRK1
Ontario, Selkirk, ON N0A 1P0

OntarioSelkirk, ON N0A 1P0

Lat: 42.8083652, Lon: -79.94971040000001

Elevation: 583

Station Type: Acurite 5 in 1

http://gavinsurf.com

High Low Average
Temperature 83.1°F28.4°C 70.0°F21.1°C 75.9°F24.4°C
Dew Point 78.3°F25.7°C 69.7°F20.9°C 73.7°F23.2°C
Winds 9.2 mph 14.8 kmh Calm Calm 4.0 mph SW6.4 kmh SW
Wind Gusts 11.5 mph18.5 kmh -- 5.0 mph8.0 kmh
Humidity 99% 85% 93%
Pressure 31.85 in1078.6 mb 29.10 in985.4 mb -
Precipitation 0.00 in0.0 mm - -
Hour Temp Dew Point Humidity Winds Wind Gusts Pressure Precip Precip Rate Daily Precip Total
12:00 AM 70.5°F21.4°C 70.2°F21.2°C 99% 2.3 mph SSW3.7 kmh SSW 1.2 mph1.9 kmh 31.24 in1057.9 mb - 0.00 in0.0 mm 0.00 in0.0 mm
12:10 AM 70.5°F21.4°C 70.2°F21.2°C 99% 1.2 mph NW1.9 kmh NW 2.3 mph3.7 kmh 31.27 in1058.9 mb - 0.00 in0.0 mm 0.00 in0.0 mm
12:15 AM 70.5°F21.4°C 70.2°F21.2°C 99% 2.3 mph WNW3.7 kmh WNW 3.5 mph5.6 kmh 31.27 in1058.9 mb - 0.00 in0.0 mm 0.00 in0.0 mm
12:20 AM 70.5°F21.4°C 70.2°F21.2°C 99% 2.3 mph WSW3.7 kmh WSW 3.5 mph5.6 kmh 31.29 in1059.6 mb - 0.00 in0.0 mm 0.00 in0.0 mm
12:25 AM 70.5°F21.4°C 70.2°F21.2°C 99% 3.5 mph WSW5.6 kmh WSW 3.5 mph5.6 kmh 31.29 in1059.6 mb - 0.00 in0.0 mm 0.00 in0.0 mm
12:30 AM 70.5°F21.4°C 70.2°F21.2°C 99% 1.2 mph NNW1.9 kmh NNW 1.2 mph1.9 kmh 31.35 in1061.6 mb - 0.00 in0.0 mm 0.00 in0.0 mm
12:35 AM 70.5°F21.4°C 70.2°F21.2°C 99% 1.2 mph W1.9 kmh W 1.2 mph1.9 kmh 31.35 in1061.6 mb - 0.00 in0.0 mm 0.00 in0.0 mm
12:40 AM 70.4°F21.3°C 70.1°F21.2°C 99% 1.2 mph WSW1.9 kmh WSW 1.2 mph1.9 kmh 31.35 in1061.6 mb - 0.00 in0.0 mm 0.00 in0.0 mm
12:45 AM 70.4°F21.3°C 70.1°F21.2°C 99% 1.2 mph SW1.9 kmh SW 2.3 mph3.7 kmh 31.37 in1062.3 mb - 0.00 in0.0 mm 0.00 in0.0 mm
12:50 AM 70.4°F21.3°C 70.1°F21.2°C 99% 1.2 mph SW1.9 kmh SW 2.3 mph3.7 kmh 31.37 in1062.3 mb - 0.00 in0.0 mm 0.00 in0.0 mm
12:55 AM 70.4°F21.3°C 70.1°F21.2°C 99% Calm Calm -- 31.40 in1063.3 mb - 0.00 in0.0 mm 0.00 in0.0 mm
01:00 AM 70.4°F21.3°C 70.1°F21.2°C 99% 2.3 mph SSW3.7 kmh SSW 2.3 mph3.7 kmh 31.40 in1063.3 mb - 0.00 in0.0 mm 0.00 in0.0 mm
01:10 AM 70.4°F21.3°C 70.1°F21.2°C 99% 2.3 mph SW3.7 kmh SW 2.3 mph3.7 kmh 31.42 in1064.0 mb - 0.00 in0.0 mm 0.00 in0.0 mm
01:15 AM 70.4°F21.3°C 70.1°F21.2°C 99% 2.3 mph SW3.7 kmh SW 2.3 mph3.7 kmh 31.42 in1064.0 mb - 0.00 in0.0 mm 0.00 in0.0 mm
01:20 AM 70.5°F21.4°C 70.2°F21.2°C 99% 2.3 mph SW3.7 kmh SW 2.3 mph3.7 kmh 31.41 in1063.7 mb - 0.00 in0.0 mm 0.00 in0.0 mm
01:25 AM 70.5°F21.4°C 70.2°F21.2°C 99% 1.2 mph SW1.9 kmh SW 1.2 mph1.9 kmh 31.41 in1063.7 mb - 0.00 in0.0 mm 0.00 in0.0 mm
01:30 AM 70.5°F21.4°C 70.2°F21.2°C 99% 1.2 mph SSW1.9 kmh SSW 2.3 mph3.7 kmh 31.46 in1065.4 mb - 0.00 in0.0 mm 0.00 in0.0 mm
01:35 AM 70.5°F21.4°C 70.2°F21.2°C 99% 2.3 mph SW3.7 kmh SW 2.3 mph3.7 kmh 31.46 in1065.4 mb - 0.00 in0.0 mm 0.00 in0.0 mm
01:40 AM 70.7°F21.5°C 70.4°F21.3°C 99% 2.3 mph SSW3.7 kmh SSW 2.3 mph3.7 kmh 31.46 in1065.4 mb - 0.00 in0.0 mm 0.00 in0.0 mm
01:45 AM 70.7°F21.5°C 70.4°F21.3°C 99% 1.2 mph SW1.9 kmh SW 1.2 mph1.9 kmh 31.50 in1066.7 mb - 0.00 in0.0 mm 0.00 in0.0 mm
01:50 AM 70.7°F21.5°C 70.4°F21.3°C 99% Calm Calm -- 31.50 in1066.7 mb - 0.00 in0.0 mm 0.00 in0.0 mm
01:55 AM 70.4°F21.3°C 70.1°F21.2°C 99% Calm Calm -- 31.52 in1067.4 mb - 0.00 in0.0 mm 0.00 in0.0 mm
02:00 AM 70.4°F21.3°C 70.1°F21.2°C 99% Calm Calm -- 31.52 in1067.4 mb - 0.00 in0.0 mm 0.00 in0.0 mm
02:10 AM 70.0°F21.1°C 69.7°F20.9°C 99% Calm Calm -- 31.57 in1069.1 mb - 0.00 in0.0 mm 0.00 in0.0 mm
02:15 AM 70.0°F21.1°C 69.7°F20.9°C 99% 2.3 mph SSW3.7 kmh SSW 1.2 mph1.9 kmh 31.57 in1069.1 mb - 0.00 in0.0 mm 0.00 in0.0 mm
02:20 AM 70.0°F21.1°C 69.7°F20.9°C 99% 2.3 mph S3.7 kmh S 3.5 mph5.6 kmh 31.61 in1070.4 mb - 0.00 in0.0 mm 0.00 in0.0 mm
02:25 AM 70.5°F21.4°C 70.2°F21.2°C 99% 2.3 mph WSW3.7 kmh WSW 3.5 mph5.6 kmh 31.61 in1070.4 mb - 0.00 in0.0 mm 0.00 in0.0 mm
02:30 AM 70.5°F21.4°C 70.2°F21.2°C 99% 3.5 mph WSW5.6 kmh WSW 3.5 mph5.6 kmh 31.63 in1071.1 mb - 0.00 in0.0 mm 0.00 in0.0 mm
02:35 AM 70.7°F21.5°C 70.4°F21.3°C 99% 2.3 mph SSW3.7 kmh SSW 3.5 mph5.6 kmh 31.63 in1071.1 mb - 0.00 in0.0 mm 0.00 in0.0 mm
02:40 AM 70.7°F21.5°C 70.4°F21.3°C 99% 2.3 mph SW3.7 kmh SW 2.3 mph3.7 kmh 31.63 in1071.1 mb - 0.00 in0.0 mm 0.00 in0.0 mm
02:45 AM 70.7°F21.5°C 70.4°F21.3°C 99% 2.3 mph SW3.7 kmh SW 3.5 mph5.6 kmh 31.64 in1071.5 mb - 0.00 in0.0 mm 0.00 in0.0 mm
02:50 AM 70.7°F21.5°C 70.4°F21.3°C 99% 2.3 mph SSW3.7 kmh SSW 3.5 mph5.6 kmh 31.64 in1071.5 mb - 0.00 in0.0 mm 0.00 in0.0 mm
02:55 AM 70.7°F21.5°C 70.4°F21.3°C 99% 2.3 mph SW3.7 kmh SW 2.3 mph3.7 kmh 31.68 in1072.8 mb - 0.00 in0.0 mm 0.00 in0.0 mm
03:00 AM 70.7°F21.5°C 70.4°F21.3°C 99% 1.2 mph SSW1.9 kmh SSW 2.3 mph3.7 kmh 31.68 in1072.8 mb - 0.00 in0.0 mm 0.00 in0.0 mm
03:10 AM 70.7°F21.5°C 70.4°F21.3°C 99% 2.3 mph SW3.7 kmh SW 2.3 mph3.7 kmh 31.73 in1074.5 mb - 0.00 in0.0 mm 0.00 in0.0 mm
03:15 AM 70.7°F21.5°C 70.4°F21.3°C 99% 3.5 mph SW5.6 kmh SW 4.6 mph7.4 kmh 31.73 in1074.5 mb - 0.00 in0.0 mm 0.00 in0.0 mm
03:20 AM 70.7°F21.5°C 70.4°F21.3°C 99% 3.5 mph SSW5.6 kmh SSW 3.5 mph5.6 kmh 31.74 in1074.8 mb - 0.00 in0.0 mm 0.00 in0.0 mm
03:25 AM 70.7°F21.5°C 70.4°F21.3°C 99% 2.3 mph SW3.7 kmh SW 2.3 mph3.7 kmh 31.74 in1074.8 mb - 0.00 in0.0 mm 0.00 in0.0 mm
03:30 AM 70.7°F21.5°C 70.4°F21.3°C 99% 2.3 mph SW3.7 kmh SW 3.5 mph5.6 kmh 31.81 in1077.2 mb - 0.00 in0.0 mm 0.00 in0.0 mm
03:35 AM 70.9°F21.6°C 70.6°F21.4°C 99% 3.5 mph SW5.6 kmh SW 3.5 mph5.6 kmh 31.81 in1077.2 mb - 0.00 in0.0 mm 0.00 in0.0 mm
03:40 AM 71.1°F21.7°C 70.8°F21.6°C 99% 2.3 mph WSW3.7 kmh WSW 5.8 mph9.3 kmh 31.82 in1077.5 mb - 0.00 in0.0 mm 0.00 in0.0 mm
03:45 AM 71.3°F21.8°C 71.0°F21.7°C 99% 3.5 mph SW5.6 kmh SW 4.6 mph7.4 kmh 31.85 in1078.6 mb - 0.00 in0.0 mm 0.00 in0.0 mm
03:50 AM 71.6°F22.0°C 71.3°F21.8°C 99% 5.8 mph SW9.3 kmh SW 5.8 mph9.3 kmh 31.85 in1078.6 mb - 0.00 in0.0 mm 0.00 in0.0 mm
03:55 AM 71.8°F22.1°C 71.5°F21.9°C 99% 3.5 mph WSW5.6 kmh WSW 5.8 mph9.3 kmh 31.85 in1078.6 mb - 0.00 in0.0 mm 0.00 in0.0 mm
04:00 AM 71.8°F22.1°C 71.5°F21.9°C 99% 4.6 mph SW7.4 kmh SW 5.8 mph9.3 kmh 31.85 in1078.6 mb - 0.00 in0.0 mm 0.00 in0.0 mm
04:10 AM 71.8°F22.1°C 71.5°F21.9°C 99% 2.3 mph SW3.7 kmh SW 2.3 mph3.7 kmh 31.85 in1078.6 mb - 0.00 in0.0 mm 0.00 in0.0 mm
04:15 AM 71.6°F22.0°C 71.3°F21.8°C 99% 2.3 mph SW3.7 kmh SW 3.5 mph5.6 kmh 31.85 in1078.6 mb - 0.00 in0.0 mm 0.00 in0.0 mm
04:20 AM 71.6°F22.0°C 71.3°F21.8°C 99% 2.3 mph S3.7 kmh S 4.6 mph7.4 kmh 31.85 in1078.6 mb - 0.00 in0.0 mm 0.00 in0.0 mm
04:25 AM 71.4°F21.9°C 71.1°F21.7°C 99% 1.2 mph SSW1.9 kmh SSW 2.3 mph3.7 kmh 31.85 in1078.6 mb - 0.00 in0.0 mm 0.00 in0.0 mm
04:30 AM 71.3°F21.8°C 71.0°F21.7°C 99% 1.2 mph SE1.9 kmh SE 1.2 mph1.9 kmh 31.85 in1078.6 mb - 0.00 in0.0 mm 0.00 in0.0 mm
04:35 AM 71.1°F21.7°C 70.8°F21.6°C 99% Calm Calm 1.2 mph1.9 kmh 31.85 in1078.6 mb - 0.00 in0.0 mm 0.00 in0.0 mm
04:40 AM 70.9°F21.6°C 70.6°F21.4°C 99% 1.2 mph N1.9 kmh N 1.2 mph1.9 kmh 31.85 in1078.6 mb - 0.00 in0.0 mm 0.00 in0.0 mm
04:45 AM 70.9°F21.6°C 70.6°F21.4°C 99% 1.2 mph NW1.9 kmh NW 2.3 mph3.7 kmh 31.85 in1078.6 mb - 0.00 in0.0 mm 0.00 in0.0 mm
04:50 AM 70.9°F21.6°C 70.6°F21.4°C 99% 2.3 mph WSW3.7 kmh WSW 3.5 mph5.6 kmh 31.85 in1078.6 mb - 0.00 in0.0 mm 0.00 in0.0 mm
04:55 AM 71.1°F21.7°C 70.8°F21.6°C 99% 1.2 mph SSW1.9 kmh SSW 1.2 mph1.9 kmh 31.85 in1078.6 mb - 0.00 in0.0 mm 0.00 in0.0 mm
05:00 AM 70.9°F21.6°C 70.6°F21.4°C 99% 1.2 mph SW1.9 kmh SW 2.3 mph3.7 kmh 31.85 in1078.6 mb - 0.00 in0.0 mm 0.00 in0.0 mm
05:10 AM 71.1°F21.7°C 70.8°F21.6°C 99% 3.5 mph SW5.6 kmh SW 3.5 mph5.6 kmh 31.85 in1078.6 mb - 0.00 in0.0 mm 0.00 in0.0 mm
05:15 AM 71.3°F21.8°C 71.0°F21.7°C 99% 2.3 mph SSW3.7 kmh SSW 2.3 mph3.7 kmh 31.85 in1078.6 mb - 0.00 in0.0 mm 0.00 in0.0 mm
05:20 AM 71.3°F21.8°C 71.0°F21.7°C 99% 2.3 mph SSW3.7 kmh SSW 2.3 mph3.7 kmh 31.85 in1078.6 mb - 0.00 in0.0 mm 0.00 in0.0 mm
05:25 AM 71.1°F21.7°C 70.8°F21.6°C 99% 1.2 mph SSW1.9 kmh SSW 2.3 mph3.7 kmh 31.85 in1078.6 mb - 0.00 in0.0 mm 0.00 in0.0 mm
05:30 AM 71.1°F21.7°C 70.8°F21.6°C 99% 2.3 mph S3.7 kmh S 3.5 mph5.6 kmh 31.85 in1078.6 mb - 0.00 in0.0 mm 0.00 in0.0 mm
05:35 AM 71.2°F21.8°C 70.9°F21.6°C 99% 2.3 mph SSW3.7 kmh SSW 2.3 mph3.7 kmh 31.85 in1078.6 mb - 0.00 in0.0 mm 0.00 in0.0 mm
05:40 AM 71.3°F21.8°C 71.0°F21.7°C 99% 2.3 mph SSW3.7 kmh SSW 3.5 mph5.6 kmh 31.85 in1078.6 mb - 0.00 in0.0 mm 0.00 in0.0 mm
05:45 AM 71.3°F21.8°C 71.0°F21.7°C 99% 3.5 mph SSW5.6 kmh SSW 3.5 mph5.6 kmh 31.85 in1078.6 mb - 0.00 in0.0 mm 0.00 in0.0 mm
05:50 AM 71.3°F21.8°C 71.0°F21.7°C 99% 3.5 mph SW5.6 kmh SW 3.5 mph5.6 kmh 31.85 in1078.6 mb - 0.00 in0.0 mm 0.00 in0.0 mm
05:55 AM 71.3°F21.8°C 71.0°F21.7°C 99% 3.5 mph SSW5.6 kmh SSW 4.6 mph7.4 kmh 31.85 in1078.6 mb - 0.00 in0.0 mm 0.00 in0.0 mm
06:00 AM 71.3°F21.8°C 71.0°F21.7°C 99% 3.5 mph SW5.6 kmh SW 3.5 mph5.6 kmh 31.85 in1078.6 mb - 0.00 in0.0 mm 0.00 in0.0 mm
06:10 AM 71.1°F21.7°C 70.8°F21.6°C 99% 2.3 mph SW3.7 kmh SW 2.3 mph3.7 kmh 31.85 in1078.6 mb - 0.00 in0.0 mm 0.00 in0.0 mm
06:15 AM 70.9°F21.6°C 70.6°F21.4°C 99% 2.3 mph SSW3.7 kmh SSW 3.5 mph5.6 kmh 31.85 in1078.6 mb - 0.00 in0.0 mm 0.00 in0.0 mm
06:20 AM 70.9°F21.6°C 70.6°F21.4°C 99% 3.5 mph SSW5.6 kmh SSW 3.5 mph5.6 kmh 31.85 in1078.6 mb - 0.00 in0.0 mm 0.00 in0.0 mm
06:25 AM 70.9°F21.6°C 70.6°F21.4°C 99% 2.3 mph SW3.7 kmh SW 3.5 mph5.6 kmh 31.85 in1078.6 mb - 0.00 in0.0 mm 0.00 in0.0 mm
06:30 AM 70.9°F21.6°C 70.6°F21.4°C 99% 3.5 mph SW5.6 kmh SW 4.6 mph7.4 kmh 31.85 in1078.6 mb - 0.00 in0.0 mm 0.00 in0.0 mm
06:35 AM 71.1°F21.7°C 70.8°F21.6°C 99% 2.3 mph SW3.7 kmh SW 2.3 mph3.7 kmh 31.85 in1078.6 mb - 0.00 in0.0 mm 0.00 in0.0 mm
06:40 AM 71.1°F21.7°C 70.8°F21.6°C 99% 2.3 mph SE3.7 kmh SE 2.3 mph3.7 kmh 31.85 in1078.6 mb - 0.00 in0.0 mm 0.00 in0.0 mm
06:45 AM 71.3°F21.8°C 71.0°F21.7°C 99% 2.3 mph SSW3.7 kmh SSW 2.3 mph3.7 kmh 31.85 in1078.6 mb - 0.00 in0.0 mm 0.00 in0.0 mm
06:50 AM 71.4°F21.9°C 71.1°F21.7°C 99% 2.3 mph SSW3.7 kmh SSW 3.5 mph5.6 kmh 31.85 in1078.6 mb - 0.00 in0.0 mm 0.00 in0.0 mm
06:55 AM 71.5°F21.9°C 71.2°F21.8°C 99% 2.3 mph SSW3.7 kmh SSW 3.5 mph5.6 kmh 31.85 in1078.6 mb - 0.00 in0.0 mm 0.00 in0.0 mm
07:00 AM 71.7°F22.1°C 71.4°F21.9°C 99% 2.3 mph SSW3.7 kmh SSW 2.3 mph3.7 kmh 31.85 in1078.6 mb - 0.00 in0.0 mm 0.00 in0.0 mm
07:10 AM 72.5°F22.5°C 72.2°F22.3°C 99% 2.3 mph SW3.7 kmh SW 2.3 mph3.7 kmh 31.85 in1078.6 mb - 0.00 in0.0 mm 0.00 in0.0 mm
07:15 AM 72.5°F22.5°C 72.2°F22.3°C 99% 4.6 mph SW7.4 kmh SW 4.6 mph7.4 kmh 31.85 in1078.6 mb - 0.00 in0.0 mm 0.00 in0.0 mm
07:20 AM 72.5°F22.5°C 72.2°F22.3°C 99% 5.8 mph SW9.3 kmh SW 5.8 mph9.3 kmh 31.85 in1078.6 mb - 0.00 in0.0 mm 0.00 in0.0 mm
07:25 AM 72.5°F22.5°C 72.2°F22.3°C 99% 2.3 mph WSW3.7 kmh WSW 3.5 mph5.6 kmh 31.85 in1078.6 mb - 0.00 in0.0 mm 0.00 in0.0 mm
07:30 AM 72.8°F22.7°C 72.5°F22.5°C 99% 1.2 mph NNE1.9 kmh NNE 1.2 mph1.9 kmh 31.85 in1078.6 mb - 0.00 in0.0 mm 0.00 in0.0 mm
07:35 AM 72.9°F22.7°C 72.3°F22.4°C 98% 2.3 mph WSW3.7 kmh WSW 3.5 mph5.6 kmh 31.85 in1078.6 mb - 0.00 in0.0 mm 0.00 in0.0 mm
07:40 AM 73.1°F22.8°C 72.5°F22.5°C 98% 3.5 mph WSW5.6 kmh WSW 2.3 mph3.7 kmh 31.85 in1078.6 mb - 0.00 in0.0 mm 0.00 in0.0 mm
07:45 AM 73.4°F23.0°C 72.8°F22.7°C 98% 3.5 mph SW5.6 kmh SW 4.6 mph7.4 kmh 31.85 in1078.6 mb - 0.00 in0.0 mm 0.00 in0.0 mm
07:50 AM 73.4°F23.0°C 72.5°F22.5°C 97% 3.5 mph SW5.6 kmh SW 5.8 mph9.3 kmh 31.85 in1078.6 mb - 0.00 in0.0 mm 0.00 in0.0 mm
07:55 AM 73.4°F23.0°C 72.5°F22.5°C 97% 3.5 mph SW5.6 kmh SW 3.5 mph5.6 kmh 31.85 in1078.6 mb - 0.00 in0.0 mm 0.00 in0.0 mm
08:00 AM 73.9°F23.3°C 72.9°F22.7°C 97% 3.5 mph WSW5.6 kmh WSW 3.5 mph5.6 kmh 31.85 in1078.6 mb - 0.00 in0.0 mm 0.00 in0.0 mm
08:10 AM 74.1°F23.4°C 73.2°F22.9°C 97% 2.3 mph S3.7 kmh S 4.6 mph7.4 kmh 31.85 in1078.6 mb - 0.00 in0.0 mm 0.00 in0.0 mm
08:15 AM 74.1°F23.4°C 72.9°F22.7°C 96% 4.6 mph SW7.4 kmh SW 4.6 mph7.4 kmh 31.85 in1078.6 mb - 0.00 in0.0 mm 0.00 in0.0 mm
08:20 AM 74.1°F23.4°C 72.9°F22.7°C 96% 4.6 mph SW7.4 kmh SW 5.8 mph9.3 kmh 31.85 in1078.6 mb - 0.00 in0.0 mm 0.00 in0.0 mm
08:25 AM 74.1°F23.4°C 72.9°F22.7°C 96% 3.5 mph WSW5.6 kmh WSW 4.6 mph7.4 kmh 31.85 in1078.6 mb - 0.00 in0.0 mm 0.00 in0.0 mm
08:30 AM 74.4°F23.6°C 73.2°F22.9°C 96% 3.5 mph SSW5.6 kmh SSW 4.6 mph7.4 kmh 31.85 in1078.6 mb - 0.00 in0.0 mm 0.00 in0.0 mm
08:35 AM 74.5°F23.6°C 73.0°F22.8°C 95% 4.6 mph SSW7.4 kmh SSW 5.8 mph9.3 kmh 31.85 in1078.6 mb - 0.00 in0.0 mm 0.00 in0.0 mm
08:40 AM 74.9°F23.8°C 73.4°F23.0°C 95% 4.6 mph WSW7.4 kmh WSW 4.6 mph7.4 kmh 31.85 in1078.6 mb - 0.00 in0.0 mm 0.00 in0.0 mm
08:45 AM 75.2°F24.0°C 73.3°F22.9°C 94% 4.6 mph SW7.4 kmh SW 5.8 mph9.3 kmh 31.85 in1078.6 mb - 0.00 in0.0 mm 0.00 in0.0 mm
08:50 AM 75.4°F24.1°C 73.5°F23.1°C 94% 5.8 mph WSW9.3 kmh WSW 8.1 mph13.0 kmh 31.85 in1078.6 mb - 0.00 in0.0 mm 0.00 in0.0 mm
08:55 AM 75.8°F24.3°C 73.6°F23.1°C 93% 4.6 mph SW7.4 kmh SW 5.8 mph9.3 kmh 31.85 in1078.6 mb - 0.00 in0.0 mm 0.00 in0.0 mm
09:00 AM 75.9°F24.4°C 73.7°F23.2°C 93% 5.8 mph SW9.3 kmh SW 6.9 mph11.1 kmh 31.85 in1078.6 mb - 0.00 in0.0 mm 0.00 in0.0 mm
09:10 AM 76.5°F24.7°C 74.0°F23.3°C 92% 5.8 mph WSW9.3 kmh WSW 6.9 mph11.1 kmh 31.85 in1078.6 mb - 0.00 in0.0 mm 0.00 in0.0 mm
09:15 AM 76.5°F24.7°C 73.7°F23.2°C 91% 3.5 mph S5.6 kmh S 8.1 mph13.0 kmh 31.85 in1078.6 mb - 0.00 in0.0 mm 0.00 in0.0 mm
09:20 AM 76.9°F24.9°C 74.1°F23.4°C 91% 3.5 mph SSW5.6 kmh SSW 5.8 mph9.3 kmh 31.85 in1078.6 mb - 0.00 in0.0 mm 0.00 in0.0 mm
09:25 AM 77.4°F25.2°C 74.3°F23.5°C 90% 4.6 mph SW7.4 kmh SW 11.5 mph18.5 kmh 31.85 in1078.6 mb - 0.00 in0.0 mm 0.00 in0.0 mm
09:30 AM 77.4°F25.2°C 74.2°F23.4°C 90% 4.6 mph SW7.4 kmh SW 8.1 mph13.0 kmh 31.85 in1078.6 mb - 0.00 in0.0 mm 0.00 in0.0 mm
09:35 AM 77.9°F25.5°C 74.4°F23.6°C 89% 5.8 mph SW9.3 kmh SW 5.8 mph9.3 kmh 31.85 in1078.6 mb - 0.00 in0.0 mm 0.00 in0.0 mm
09:40 AM 77.9°F25.5°C 74.4°F23.6°C 89% 5.8 mph SSW9.3 kmh SSW 5.8 mph9.3 kmh 31.85 in1078.6 mb - 0.00 in0.0 mm 0.00 in0.0 mm
09:45 AM 78.2°F25.7°C 74.7°F23.7°C 89% 6.9 mph SSW11.1 kmh SSW 9.2 mph14.8 kmh 31.85 in1078.6 mb - 0.00 in0.0 mm 0.00 in0.0 mm
09:50 AM 78.3°F25.7°C 74.8°F23.8°C 89% 4.6 mph S7.4 kmh S 4.6 mph7.4 kmh 31.85 in1078.6 mb - 0.00 in0.0 mm 0.00 in0.0 mm
09:55 AM 78.6°F25.9°C 75.1°F23.9°C 89% 4.6 mph SW7.4 kmh SW 5.8 mph9.3 kmh 31.85 in1078.6 mb - 0.00 in0.0 mm 0.00 in0.0 mm
10:00 AM 78.6°F25.9°C 75.0°F23.9°C 89% 4.6 mph SW7.4 kmh SW 6.9 mph11.1 kmh 31.85 in1078.6 mb - 0.00 in0.0 mm 0.00 in0.0 mm
10:10 AM 77.0°F25.0°C 74.2°F23.4°C 91% 6.9 mph SW11.1 kmh SW 6.9 mph11.1 kmh 31.85 in1078.6 mb - 0.00 in0.0 mm 0.00 in0.0 mm
10:15 AM 76.7°F24.8°C 74.2°F23.4°C 92% 5.8 mph SSW9.3 kmh SSW 6.9 mph11.1 kmh 31.85 in1078.6 mb - 0.00 in0.0 mm 0.00 in0.0 mm
10:20 AM 76.5°F24.7°C 74.0°F23.3°C 92% 4.6 mph SW7.4 kmh SW 6.9 mph11.1 kmh 31.85 in1078.6 mb - 0.00 in0.0 mm 0.00 in0.0 mm
10:25 AM 76.7°F24.8°C 74.2°F23.4°C 92% 5.8 mph SSW9.3 kmh SSW 5.8 mph9.3 kmh 31.85 in1078.6 mb - 0.00 in0.0 mm 0.00 in0.0 mm
10:30 AM 77.2°F25.1°C 74.3°F23.5°C 91% 5.8 mph SW9.3 kmh SW 6.9 mph11.1 kmh 31.85 in1078.6 mb - 0.00 in0.0 mm 0.00 in0.0 mm
10:35 AM 76.8°F24.9°C 74.0°F23.3°C 91% 4.6 mph WSW7.4 kmh WSW 8.1 mph13.0 kmh 31.85 in1078.6 mb - 0.00 in0.0 mm 0.00 in0.0 mm
10:40 AM 77.0°F25.0°C 73.8°F23.2°C 90% 4.6 mph SW7.4 kmh SW 6.9 mph11.1 kmh 31.85 in1078.6 mb - 0.00 in0.0 mm 0.00 in0.0 mm
10:45 AM 77.2°F25.1°C 74.0°F23.3°C 90% 5.8 mph SW9.3 kmh SW 5.8 mph9.3 kmh 31.85 in1078.6 mb - 0.00 in0.0 mm 0.00 in0.0 mm
10:50 AM 76.8°F24.9°C 73.7°F23.2°C 90% 5.8 mph SW9.3 kmh SW 6.9 mph11.1 kmh 31.85 in1078.6 mb - 0.00 in0.0 mm 0.00 in0.0 mm
10:55 AM 76.7°F24.8°C 73.9°F23.3°C 91% 4.6 mph SW7.4 kmh SW 5.8 mph9.3 kmh 31.85 in1078.6 mb - 0.00 in0.0 mm 0.00 in0.0 mm
11:00 AM 76.7°F24.8°C 73.9°F23.3°C 91% 4.6 mph SW7.4 kmh SW 5.8 mph9.3 kmh 31.85 in1078.6 mb - 0.00 in0.0 mm 0.00 in0.0 mm
11:10 AM 76.7°F24.8°C 73.8°F23.2°C 91% 4.6 mph S7.4 kmh S 5.8 mph9.3 kmh 31.85 in1078.6 mb - 0.00 in0.0 mm 0.00 in0.0 mm
11:15 AM 76.6°F24.8°C 73.8°F23.2°C 91% 6.9 mph SW11.1 kmh SW 6.9 mph11.1 kmh 31.85 in1078.6 mb - 0.00 in0.0 mm 0.00 in0.0 mm
11:20 AM 76.5°F24.7°C 73.7°F23.2°C 91% 5.8 mph SSW9.3 kmh SSW 5.8 mph9.3 kmh 31.85 in1078.6 mb - 0.00 in0.0 mm 0.00 in0.0 mm
11:25 AM 76.8°F24.9°C 73.9°F23.3°C 91% 4.6 mph SW7.4 kmh SW 5.8 mph9.3 kmh 31.85 in1078.6 mb - 0.00 in0.0 mm 0.00 in0.0 mm
11:30 AM 77.6°F25.3°C 74.7°F23.7°C 91% 5.8 mph SW9.3 kmh SW 8.1 mph13.0 kmh 31.85 in1078.6 mb - 0.00 in0.0 mm 0.00 in0.0 mm
11:35 AM 78.1°F25.6°C 74.6°F23.7°C 89% 6.9 mph SSW11.1 kmh SSW 6.9 mph11.1 kmh 31.85 in1078.6 mb - 0.00 in0.0 mm 0.00 in0.0 mm
11:40 AM 78.2°F25.7°C 74.7°F23.7°C 89% 4.6 mph SW7.4 kmh SW 5.8 mph9.3 kmh 31.85 in1078.6 mb - 0.00 in0.0 mm 0.00 in0.0 mm
11:45 AM 78.5°F25.8°C 75.0°F23.9°C 89% 4.6 mph SW7.4 kmh SW 5.8 mph9.3 kmh 31.85 in1078.6 mb - 0.00 in0.0 mm 0.00 in0.0 mm
11:50 AM 78.5°F25.8°C 75.0°F23.9°C 89% 5.8 mph SW9.3 kmh SW 5.8 mph9.3 kmh 31.85 in1078.6 mb - 0.00 in0.0 mm 0.00 in0.0 mm
11:55 AM 78.5°F25.8°C 74.6°F23.7°C 88% 6.9 mph SW11.1 kmh SW 6.9 mph11.1 kmh 31.85 in1078.6 mb - 0.00 in0.0 mm 0.00 in0.0 mm
12:00 PM 79.0°F26.1°C 75.4°F24.1°C 89% 5.8 mph S9.3 kmh S 6.9 mph11.1 kmh 31.85 in1078.6 mb - 0.00 in0.0 mm 0.00 in0.0 mm
12:10 PM 79.7°F26.5°C 75.5°F24.2°C 87% 5.8 mph SSW9.3 kmh SSW 6.9 mph11.1 kmh 31.75 in1075.2 mb - 0.00 in0.0 mm 0.00 in0.0 mm
12:15 PM 79.4°F26.3°C 75.5°F24.2°C 88% 4.6 mph SW7.4 kmh SW 6.9 mph11.1 kmh 31.75 in1075.2 mb - 0.00 in0.0 mm 0.00 in0.0 mm
12:20 PM 78.7°F25.9°C 75.1°F23.9°C 89% 4.6 mph SW7.4 kmh SW 5.8 mph9.3 kmh 31.58 in1069.4 mb - 0.00 in0.0 mm 0.00 in0.0 mm
12:25 PM 79.3°F26.3°C 75.5°F24.2°C 88% 5.8 mph SSW9.3 kmh SSW 6.9 mph11.1 kmh 31.58 in1069.4 mb - 0.00 in0.0 mm 0.00 in0.0 mm
12:35 PM 79.0°F26.1°C 75.1°F23.9°C 88% 5.8 mph SSW9.3 kmh SSW 6.9 mph11.1 kmh 31.48 in1066.0 mb - 0.00 in0.0 mm 0.00 in0.0 mm
12:40 PM 79.4°F26.3°C 75.5°F24.2°C 88% 4.6 mph SSW7.4 kmh SSW 5.8 mph9.3 kmh 31.45 in1065.0 mb - 0.00 in0.0 mm 0.00 in0.0 mm
12:45 PM 79.4°F26.3°C 75.6°F24.2°C 88% 4.6 mph SW7.4 kmh SW 6.9 mph11.1 kmh 31.39 in1063.0 mb - 0.00 in0.0 mm 0.00 in0.0 mm
12:50 PM 79.5°F26.4°C 75.3°F24.1°C 87% 4.6 mph WSW7.4 kmh WSW 5.8 mph9.3 kmh 31.39 in1063.0 mb - 0.00 in0.0 mm 0.00 in0.0 mm
12:55 PM 79.3°F26.3°C 75.1°F23.9°C 87% 6.9 mph SW11.1 kmh SW 6.9 mph11.1 kmh 31.27 in1058.9 mb - 0.00 in0.0 mm 0.00 in0.0 mm
01:00 PM 79.3°F26.3°C 75.1°F23.9°C 87% 8.1 mph SW13.0 kmh SW 10.4 mph16.7 kmh 31.27 in1058.9 mb - 0.00 in0.0 mm 0.00 in0.0 mm
01:10 PM 78.8°F26.0°C 74.9°F23.8°C 88% 8.1 mph WSW13.0 kmh WSW 9.2 mph14.8 kmh 31.24 in1057.9 mb - 0.00 in0.0 mm 0.00 in0.0 mm
01:15 PM 78.7°F25.9°C 74.8°F23.8°C 88% 9.2 mph SW14.8 kmh SW 10.4 mph16.7 kmh 31.24 in1057.9 mb - 0.00 in0.0 mm 0.00 in0.0 mm
01:20 PM 79.0°F26.1°C 75.1°F23.9°C 88% 5.8 mph SSW9.3 kmh SSW 6.9 mph11.1 kmh 31.28 in1059.3 mb - 0.00 in0.0 mm 0.00 in0.0 mm
01:25 PM 79.0°F26.1°C 75.1°F23.9°C 88% 6.9 mph SW11.1 kmh SW 8.1 mph13.0 kmh 31.28 in1059.3 mb - 0.00 in0.0 mm 0.00 in0.0 mm
01:30 PM 79.1°F26.2°C 75.3°F24.1°C 88% 5.8 mph SSW9.3 kmh SSW 5.8 mph9.3 kmh 31.20 in1056.6 mb - 0.00 in0.0 mm 0.00 in0.0 mm
01:35 PM 79.4°F26.3°C 75.5°F24.2°C 88% 5.8 mph SW9.3 kmh SW 6.9 mph11.1 kmh 31.20 in1056.6 mb - 0.00 in0.0 mm 0.00 in0.0 mm
01:40 PM 79.9°F26.6°C 75.7°F24.3°C 87% 5.8 mph SSW9.3 kmh SSW 8.1 mph13.0 kmh 31.17 in1055.5 mb - 0.00 in0.0 mm 0.00 in0.0 mm
01:45 PM 79.9°F26.6°C 75.7°F24.3°C 87% 5.8 mph SSW9.3 kmh SSW 6.9 mph11.1 kmh 31.09 in1052.8 mb - 0.00 in0.0 mm 0.00 in0.0 mm
01:50 PM 79.7°F26.5°C 75.5°F24.2°C 87% 5.8 mph WSW9.3 kmh WSW 5.8 mph9.3 kmh 31.09 in1052.8 mb - 0.00 in0.0 mm 0.00 in0.0 mm
01:55 PM 79.7°F26.5°C 75.5°F24.2°C 87% 6.9 mph SW11.1 kmh SW 8.1 mph13.0 kmh 30.99 in1049.4 mb - 0.00 in0.0 mm 0.00 in0.0 mm
02:00 PM 79.8°F26.6°C 75.6°F24.2°C 87% 4.6 mph SW7.4 kmh SW 5.8 mph9.3 kmh 30.99 in1049.4 mb - 0.00 in0.0 mm 0.00 in0.0 mm
02:10 PM 80.1°F26.7°C 75.9°F24.4°C 87% 4.6 mph SSW7.4 kmh SSW 5.8 mph9.3 kmh 30.92 in1047.1 mb - 0.00 in0.0 mm 0.00 in0.0 mm
02:15 PM 80.0°F26.7°C 75.8°F24.3°C 87% 4.6 mph WSW7.4 kmh WSW 5.8 mph9.3 kmh 30.92 in1047.1 mb - 0.00 in0.0 mm 0.00 in0.0 mm
02:20 PM 79.8°F26.6°C 75.6°F24.2°C 87% 5.8 mph SSW9.3 kmh SSW 6.9 mph11.1 kmh 30.82 in1043.7 mb - 0.00 in0.0 mm 0.00 in0.0 mm
02:25 PM 80.4°F26.9°C 76.2°F24.6°C 87% 3.5 mph NW5.6 kmh NW 4.6 mph7.4 kmh 30.82 in1043.7 mb - 0.00 in0.0 mm 0.00 in0.0 mm
02:30 PM 80.6°F27.0°C 76.3°F24.6°C 87% 4.6 mph SSW7.4 kmh SSW 5.8 mph9.3 kmh 30.76 in1041.7 mb - 0.00 in0.0 mm 0.00 in0.0 mm
02:35 PM 80.2°F26.8°C 75.9°F24.4°C 87% 5.8 mph SW9.3 kmh SW 8.1 mph13.0 kmh 30.76 in1041.7 mb - 0.00 in0.0 mm 0.00 in0.0 mm
02:40 PM 79.9°F26.6°C 75.7°F24.3°C 87% 8.1 mph SSW13.0 kmh SSW 9.2 mph14.8 kmh 30.76 in1041.7 mb - 0.00 in0.0 mm 0.00 in0.0 mm
02:45 PM 79.5°F26.4°C 75.3°F24.1°C 87% 6.9 mph SW11.1 kmh SW 8.1 mph13.0 kmh 30.68 in1038.9 mb - 0.00 in0.0 mm 0.00 in0.0 mm
02:50 PM 79.5°F26.4°C 75.3°F24.1°C 87% 5.8 mph SW9.3 kmh SW 6.9 mph11.1 kmh 30.68 in1038.9 mb - 0.00 in0.0 mm 0.00 in0.0 mm
02:55 PM 80.1°F26.7°C 75.9°F24.4°C 87% 5.8 mph SW9.3 kmh SW 5.8 mph9.3 kmh 30.71 in1040.0 mb - 0.00 in0.0 mm 0.00 in0.0 mm
03:00 PM 79.9°F26.6°C 75.7°F24.3°C 87% 9.2 mph SW14.8 kmh SW 10.4 mph16.7 kmh 30.71 in1040.0 mb - 0.00 in0.0 mm 0.00 in0.0 mm
03:10 PM 79.4°F26.3°C 75.5°F24.2°C 88% 6.9 mph SSW11.1 kmh SSW 8.1 mph13.0 kmh 30.68 in1038.9 mb - 0.00 in0.0 mm 0.00 in0.0 mm
03:15 PM 79.4°F26.3°C 75.5°F24.2°C 88% 8.1 mph SW13.0 kmh SW 8.1 mph13.0 kmh 30.68 in1038.9 mb - 0.00 in0.0 mm 0.00 in0.0 mm
03:20 PM 79.4°F26.3°C 75.5°F24.2°C 88% 8.1 mph SW13.0 kmh SW 8.1 mph13.0 kmh 30.70 in1039.6 mb - 0.00 in0.0 mm 0.00 in0.0 mm
03:25 PM 79.8°F26.6°C 76.0°F24.4°C 88% 5.8 mph SW9.3 kmh SW 6.9 mph11.1 kmh 30.70 in1039.6 mb - 0.00 in0.0 mm 0.00 in0.0 mm
03:30 PM 79.8°F26.6°C 75.9°F24.4°C 88% 5.8 mph SW9.3 kmh SW 5.8 mph9.3 kmh 30.66 in1038.3 mb - 0.00 in0.0 mm 0.00 in0.0 mm
03:35 PM 79.7°F26.5°C 75.8°F24.3°C 88% 5.8 mph WSW9.3 kmh WSW 5.8 mph9.3 kmh 30.66 in1038.3 mb - 0.00 in0.0 mm 0.00 in0.0 mm
03:40 PM 79.8°F26.6°C 75.9°F24.4°C 88% 5.8 mph WSW9.3 kmh WSW 6.9 mph11.1 kmh 30.66 in1038.3 mb - 0.00 in0.0 mm 0.00 in0.0 mm
03:45 PM 79.5°F26.4°C 75.6°F24.2°C 88% 6.9 mph SW11.1 kmh SW 9.2 mph14.8 kmh 30.59 in1035.9 mb - 0.00 in0.0 mm 0.00 in0.0 mm
03:50 PM 79.2°F26.2°C 75.7°F24.3°C 89% 8.1 mph SW13.0 kmh SW 8.1 mph13.0 kmh 30.59 in1035.9 mb - 0.00 in0.0 mm 0.00 in0.0 mm
03:55 PM 79.2°F26.2°C 75.7°F24.3°C 89% 5.8 mph W9.3 kmh W 6.9 mph11.1 kmh 30.59 in1035.9 mb - 0.00 in0.0 mm 0.00 in0.0 mm
04:00 PM 79.2°F26.2°C 75.7°F24.3°C 89% 5.8 mph SSW9.3 kmh SSW 5.8 mph9.3 kmh 30.59 in1035.9 mb - 0.00 in0.0 mm 0.00 in0.0 mm
04:10 PM 78.9°F26.1°C 75.3°F24.1°C 89% 5.8 mph SW9.3 kmh SW 5.8 mph9.3 kmh 30.50 in1032.8 mb - 0.00 in0.0 mm 0.00 in0.0 mm
04:15 PM 78.8°F26.0°C 75.3°F24.1°C 89% 5.8 mph WSW9.3 kmh WSW 5.8 mph9.3 kmh 30.50 in1032.8 mb - 0.00 in0.0 mm 0.00 in0.0 mm
04:20 PM 79.3°F26.3°C 75.8°F24.3°C 89% 5.8 mph S9.3 kmh S 6.9 mph11.1 kmh 30.38 in1028.8 mb - 0.00 in0.0 mm 0.00 in0.0 mm
04:25 PM 79.7°F26.5°C 76.1°F24.5°C 89% 5.8 mph WSW9.3 kmh WSW 5.8 mph9.3 kmh 30.38 in1028.8 mb - 0.00 in0.0 mm 0.00 in0.0 mm
04:30 PM 80.3°F26.8°C 76.4°F24.7°C 88% 5.8 mph W9.3 kmh W 8.1 mph13.0 kmh 30.25 in1024.4 mb - 0.00 in0.0 mm 0.00 in0.0 mm
04:35 PM 81.3°F27.4°C 77.1°F25.1°C 87% 5.8 mph WSW9.3 kmh WSW 9.2 mph14.8 kmh 30.25 in1024.4 mb - 0.00 in0.0 mm 0.00 in0.0 mm
04:40 PM 81.9°F27.7°C 77.3°F25.2°C 86% 5.8 mph SW9.3 kmh SW 5.8 mph9.3 kmh 30.25 in1024.4 mb - 0.00 in0.0 mm 0.00 in0.0 mm
04:45 PM 82.2°F27.9°C 77.6°F25.3°C 86% 6.9 mph WSW11.1 kmh WSW 6.9 mph11.1 kmh 30.10 in1019.3 mb - 0.00 in0.0 mm 0.00 in0.0 mm
04:50 PM 82.6°F28.1°C 77.6°F25.3°C 85% 5.8 mph SW9.3 kmh SW 6.9 mph11.1 kmh 30.10 in1019.3 mb - 0.00 in0.0 mm 0.00 in0.0 mm
04:55 PM 82.6°F28.1°C 77.6°F25.3°C 85% 6.9 mph SSW11.1 kmh SSW 5.8 mph9.3 kmh 29.90 in1012.5 mb - 0.00 in0.0 mm 0.00 in0.0 mm
05:00 PM 82.9°F28.3°C 78.3°F25.7°C 86% 4.6 mph W7.4 kmh W 5.8 mph9.3 kmh 29.90 in1012.5 mb - 0.00 in0.0 mm 0.00 in0.0 mm
05:10 PM 82.9°F28.3°C 77.9°F25.5°C 85% 4.6 mph SW7.4 kmh SW 6.9 mph11.1 kmh 29.70 in1005.8 mb - 0.00 in0.0 mm 0.00 in0.0 mm
05:15 PM 83.0°F28.3°C 78.0°F25.6°C 85% 4.6 mph WSW7.4 kmh WSW 4.6 mph7.4 kmh 29.70 in1005.8 mb - 0.00 in0.0 mm 0.00 in0.0 mm
05:20 PM 83.1°F28.4°C 78.1°F25.6°C 85% 5.8 mph S9.3 kmh S 6.9 mph11.1 kmh 29.53 in1000.0 mb - 0.00 in0.0 mm 0.00 in0.0 mm
05:25 PM 82.4°F28.0°C 77.7°F25.4°C 86% 4.6 mph SW7.4 kmh SW 4.6 mph7.4 kmh 29.53 in1000.0 mb - 0.00 in0.0 mm 0.00 in0.0 mm
05:30 PM 81.5°F27.5°C 77.3°F25.2°C 87% 3.5 mph SW5.6 kmh SW 5.8 mph9.3 kmh 29.37 in994.6 mb - 0.00 in0.0 mm 0.00 in0.0 mm
05:35 PM 81.2°F27.3°C 76.9°F24.9°C 87% 4.6 mph SW7.4 kmh SW 4.6 mph7.4 kmh 29.37 in994.6 mb - 0.00 in0.0 mm 0.00 in0.0 mm
05:40 PM 81.2°F27.3°C 77.3°F25.2°C 88% 3.5 mph WSW5.6 kmh WSW 4.6 mph7.4 kmh 29.32 in992.9 mb - 0.00 in0.0 mm 0.00 in0.0 mm
05:45 PM 81.2°F27.3°C 77.3°F25.2°C 88% 4.6 mph SSW7.4 kmh SSW 4.6 mph7.4 kmh 29.27 in991.2 mb - 0.00 in0.0 mm 0.00 in0.0 mm
05:50 PM 81.3°F27.4°C 77.4°F25.2°C 88% 3.5 mph SSW5.6 kmh SSW 4.6 mph7.4 kmh 29.27 in991.2 mb - 0.00 in0.0 mm 0.00 in0.0 mm
05:55 PM 81.2°F27.3°C 77.3°F25.2°C 88% 3.5 mph WSW5.6 kmh WSW 3.5 mph5.6 kmh 29.19 in988.5 mb - 0.00 in0.0 mm 0.00 in0.0 mm
06:00 PM 81.2°F27.3°C 76.9°F24.9°C 87% 3.5 mph SW5.6 kmh SW 4.6 mph7.4 kmh 29.19 in988.5 mb - 0.00 in0.0 mm 0.00 in0.0 mm
06:10 PM 81.5°F27.5°C 77.2°F25.1°C 87% 3.5 mph SW5.6 kmh SW 4.6 mph7.4 kmh 29.11 in985.8 mb - 0.00 in0.0 mm 0.00 in0.0 mm
06:15 PM 80.3°F26.8°C 76.8°F24.9°C 89% 4.6 mph SSW7.4 kmh SSW 4.6 mph7.4 kmh 29.11 in985.8 mb - 0.00 in0.0 mm 0.00 in0.0 mm
06:20 PM 80.3°F26.8°C 76.7°F24.8°C 89% 3.5 mph SW5.6 kmh SW 3.5 mph5.6 kmh 29.10 in985.4 mb - 0.00 in0.0 mm 0.00 in0.0 mm
06:25 PM 80.3°F26.8°C 76.8°F24.9°C 89% 2.3 mph SW3.7 kmh SW 4.6 mph7.4 kmh 29.10 in985.4 mb - 0.00 in0.0 mm 0.00 in0.0 mm
06:30 PM 80.3°F26.8°C 76.8°F24.9°C 89% 2.3 mph S3.7 kmh S 4.6 mph7.4 kmh 29.16 in987.5 mb - 0.00 in0.0 mm 0.00 in0.0 mm
06:35 PM 80.3°F26.8°C 76.8°F24.9°C 89% 1.2 mph SSW1.9 kmh SSW 1.2 mph1.9 kmh 29.16 in987.5 mb - 0.00 in0.0 mm 0.00 in0.0 mm
06:40 PM 79.6°F26.4°C 76.1°F24.5°C 89% 3.5 mph SSW5.6 kmh SSW 4.6 mph7.4 kmh 29.18 in988.1 mb - 0.00 in0.0 mm 0.00 in0.0 mm
06:45 PM 79.2°F26.2°C 76.0°F24.4°C 90% 3.5 mph WSW5.6 kmh WSW 3.5 mph5.6 kmh 29.21 in989.2 mb - 0.00 in0.0 mm 0.00 in0.0 mm
06:50 PM 79.1°F26.2°C 76.2°F24.6°C 91% 2.3 mph SW3.7 kmh SW 3.5 mph5.6 kmh 29.21 in989.2 mb - 0.00 in0.0 mm 0.00 in0.0 mm
06:55 PM 78.6°F25.9°C 76.1°F24.5°C 92% 2.3 mph WSW3.7 kmh WSW 5.8 mph9.3 kmh 29.27 in991.2 mb - 0.00 in0.0 mm 0.00 in0.0 mm
07:00 PM 78.2°F25.7°C 75.7°F24.3°C 92% 2.3 mph WSW3.7 kmh WSW 3.5 mph5.6 kmh 29.27 in991.2 mb - 0.00 in0.0 mm 0.00 in0.0 mm
07:10 PM 77.9°F25.5°C 75.7°F24.3°C 93% 2.3 mph SSW3.7 kmh SSW 4.6 mph7.4 kmh 29.38 in994.9 mb - 0.00 in0.0 mm 0.00 in0.0 mm
07:15 PM 77.3°F25.2°C 75.1°F23.9°C 93% 2.3 mph S3.7 kmh S 3.5 mph5.6 kmh 29.38 in994.9 mb - 0.00 in0.0 mm 0.00 in0.0 mm
07:20 PM 76.9°F24.9°C 75.0°F23.9°C 94% 4.6 mph WSW7.4 kmh WSW 5.8 mph9.3 kmh 29.46 in997.6 mb - 0.00 in0.0 mm 0.00 in0.0 mm
07:25 PM 76.6°F24.8°C 74.8°F23.8°C 94% 3.5 mph SW5.6 kmh SW 3.5 mph5.6 kmh 29.46 in997.6 mb - 0.00 in0.0 mm 0.00 in0.0 mm
07:30 PM 76.7°F24.8°C 75.1°F23.9°C 95% 3.5 mph SW5.6 kmh SW 4.6 mph7.4 kmh 29.60 in1002.4 mb - 0.00 in0.0 mm 0.00 in0.0 mm
07:35 PM 76.9°F24.9°C 75.0°F23.9°C 94% 2.3 mph WSW3.7 kmh WSW 3.5 mph5.6 kmh 29.60 in1002.4 mb - 0.00 in0.0 mm 0.00 in0.0 mm
07:40 PM 77.1°F25.1°C 75.2°F24.0°C 94% Calm Calm 2.3 mph3.7 kmh 29.62 in1003.0 mb - 0.00 in0.0 mm 0.00 in0.0 mm
07:45 PM 77.4°F25.2°C 75.5°F24.2°C 94% 3.5 mph SW5.6 kmh SW 3.5 mph5.6 kmh 29.70 in1005.8 mb - 0.00 in0.0 mm 0.00 in0.0 mm
07:50 PM 77.2°F25.1°C 75.3°F24.1°C 94% 3.5 mph S5.6 kmh S 3.5 mph5.6 kmh 29.70 in1005.8 mb - 0.00 in0.0 mm 0.00 in0.0 mm
07:55 PM 77.6°F25.3°C 75.7°F24.3°C 94% 3.5 mph SW5.6 kmh SW 4.6 mph7.4 kmh 29.76 in1007.8 mb - 0.00 in0.0 mm 0.00 in0.0 mm
08:00 PM 77.8°F25.4°C 75.6°F24.2°C 93% 2.3 mph SE3.7 kmh SE 2.3 mph3.7 kmh 29.76 in1007.8 mb - 0.00 in0.0 mm 0.00 in0.0 mm
08:10 PM 77.2°F25.1°C 75.0°F23.9°C 93% 3.5 mph SW5.6 kmh SW 4.6 mph7.4 kmh 29.82 in1009.8 mb - 0.00 in0.0 mm 0.00 in0.0 mm
08:15 PM 76.7°F24.8°C 74.6°F23.7°C 93% 1.2 mph WSW1.9 kmh WSW 3.5 mph5.6 kmh 29.82 in1009.8 mb - 0.00 in0.0 mm 0.00 in0.0 mm
08:20 PM 76.3°F24.6°C 74.4°F23.6°C 94% 2.3 mph SW3.7 kmh SW 4.6 mph7.4 kmh 29.86 in1011.2 mb - 0.00 in0.0 mm 0.00 in0.0 mm
08:25 PM 75.9°F24.4°C 74.3°F23.5°C 95% 2.3 mph WSW3.7 kmh WSW 2.3 mph3.7 kmh 29.86 in1011.2 mb - 0.00 in0.0 mm 0.00 in0.0 mm
08:30 PM 75.9°F24.4°C 74.3°F23.5°C 95% 1.2 mph SSW1.9 kmh SSW 1.2 mph1.9 kmh 29.89 in1012.2 mb - 0.00 in0.0 mm 0.00 in0.0 mm
08:35 PM 75.9°F24.4°C 74.3°F23.5°C 95% 1.2 mph NE1.9 kmh NE 1.2 mph1.9 kmh 29.89 in1012.2 mb - 0.00 in0.0 mm 0.00 in0.0 mm
08:40 PM 75.9°F24.4°C 74.3°F23.5°C 95% 1.2 mph S1.9 kmh S 4.6 mph7.4 kmh 29.91 in1012.9 mb - 0.00 in0.0 mm 0.00 in0.0 mm
08:45 PM 75.8°F24.3°C 74.6°F23.7°C 96% 2.3 mph SSW3.7 kmh SSW 2.3 mph3.7 kmh 29.96 in1014.6 mb - 0.00 in0.0 mm 0.00 in0.0 mm
08:50 PM 75.6°F24.2°C 74.4°F23.6°C 96% 2.3 mph SW3.7 kmh SW 2.3 mph3.7 kmh 29.96 in1014.6 mb - 0.00 in0.0 mm 0.00 in0.0 mm
08:55 PM 75.4°F24.1°C 74.2°F23.4°C 96% 2.3 mph WSW3.7 kmh WSW 3.5 mph5.6 kmh 30.07 in1018.3 mb - 0.00 in0.0 mm 0.00 in0.0 mm
09:00 PM 75.3°F24.1°C 74.1°F23.4°C 96% 1.2 mph WSW1.9 kmh WSW 1.2 mph1.9 kmh 30.07 in1018.3 mb - 0.00 in0.0 mm 0.00 in0.0 mm
09:10 PM 74.7°F23.7°C 73.5°F23.1°C 96% Calm Calm -- 30.07 in1018.3 mb - 0.00 in0.0 mm 0.00 in0.0 mm
09:15 PM 74.5°F23.6°C 73.6°F23.1°C 97% Calm Calm -- 30.07 in1018.3 mb - 0.00 in0.0 mm 0.00 in0.0 mm
09:20 PM 74.3°F23.5°C 73.7°F23.2°C 98% 1.2 mph W1.9 kmh W -- 30.09 in1019.0 mb - 0.00 in0.0 mm 0.00 in0.0 mm
09:25 PM 74.1°F23.4°C 73.5°F23.1°C 98% 1.2 mph W1.9 kmh W 2.3 mph3.7 kmh 30.09 in1019.0 mb - 0.00 in0.0 mm 0.00 in0.0 mm
09:30 PM 73.9°F23.3°C 73.6°F23.1°C 99% 1.2 mph WSW1.9 kmh WSW 2.3 mph3.7 kmh 30.13 in1020.3 mb - 0.00 in0.0 mm 0.00 in0.0 mm
09:35 PM 73.8°F23.2°C 73.5°F23.1°C 99% 2.3 mph WSW3.7 kmh WSW 2.3 mph3.7 kmh 30.13 in1020.3 mb - 0.00 in0.0 mm 0.00 in0.0 mm
09:40 PM 73.8°F23.2°C 73.5°F23.1°C 99% 3.5 mph WSW5.6 kmh WSW 4.6 mph7.4 kmh 30.13 in1020.3 mb - 0.00 in0.0 mm 0.00 in0.0 mm
09:45 PM 73.6°F23.1°C 73.3°F22.9°C 99% 3.5 mph SW5.6 kmh SW 5.8 mph9.3 kmh 30.13 in1020.3 mb - 0.00 in0.0 mm 0.00 in0.0 mm
09:50 PM 73.4°F23.0°C 73.1°F22.8°C 99% 3.5 mph SSW5.6 kmh SSW 4.6 mph7.4 kmh 30.13 in1020.3 mb - 0.00 in0.0 mm 0.00 in0.0 mm
09:55 PM 73.1°F22.8°C 72.8°F22.7°C 99% 2.3 mph WSW3.7 kmh WSW 2.3 mph3.7 kmh 30.17 in1021.7 mb - 0.00 in0.0 mm 0.00 in0.0 mm
10:00 PM 73.0°F22.8°C 72.7°F22.6°C 99% Calm Calm 2.3 mph3.7 kmh 30.17 in1021.7 mb - 0.00 in0.0 mm 0.00 in0.0 mm
10:10 PM 72.6°F22.6°C 72.3°F22.4°C 99% 2.3 mph WSW3.7 kmh WSW 3.5 mph5.6 kmh 30.18 in1022.0 mb - 0.00 in0.0 mm 0.00 in0.0 mm
10:15 PM 72.5°F22.5°C 72.2°F22.3°C 99% 1.2 mph S1.9 kmh S 3.5 mph5.6 kmh 30.18 in1022.0 mb - 0.00 in0.0 mm 0.00 in0.0 mm
10:20 PM 72.3°F22.4°C 72.0°F22.2°C 99% 2.3 mph WSW3.7 kmh WSW 3.5 mph5.6 kmh 30.13 in1020.3 mb - 0.00 in0.0 mm 0.00 in0.0 mm
10:25 PM 72.2°F22.3°C 71.9°F22.2°C 99% 2.3 mph SW3.7 kmh SW 2.3 mph3.7 kmh 30.13 in1020.3 mb - 0.00 in0.0 mm 0.00 in0.0 mm
10:30 PM 72.1°F22.3°C 71.8°F22.1°C 99% 2.3 mph WSW3.7 kmh WSW 2.3 mph3.7 kmh 30.14 in1020.7 mb - 0.00 in0.0 mm 0.00 in0.0 mm
10:35 PM 72.0°F22.2°C 71.7°F22.1°C 99% Calm Calm 1.2 mph1.9 kmh 30.14 in1020.7 mb - 0.00 in0.0 mm 0.00 in0.0 mm
10:40 PM 71.8°F22.1°C 71.5°F21.9°C 99% 2.3 mph SSW3.7 kmh SSW 2.3 mph3.7 kmh 30.14 in1020.7 mb - 0.00 in0.0 mm 0.00 in0.0 mm
10:45 PM 71.7°F22.1°C 71.4°F21.9°C 99% Calm Calm -- 30.10 in1019.3 mb - 0.00 in0.0 mm 0.00 in0.0 mm
10:50 PM 71.6°F22.0°C 71.3°F21.8°C 99% 2.3 mph WSW3.7 kmh WSW 2.3 mph3.7 kmh 30.10 in1019.3 mb - 0.00 in0.0 mm 0.00 in0.0 mm
10:55 PM 71.6°F22.0°C 71.3°F21.8°C 99% 2.3 mph WSW3.7 kmh WSW 4.6 mph7.4 kmh 30.10 in1019.3 mb - 0.00 in0.0 mm 0.00 in0.0 mm
11:00 PM 71.6°F22.0°C 71.3°F21.8°C 99% 3.5 mph SW5.6 kmh SW 3.5 mph5.6 kmh 30.10 in1019.3 mb - 0.00 in0.0 mm 0.00 in0.0 mm
11:10 PM 71.6°F22.0°C 71.3°F21.8°C 99% 2.3 mph WSW3.7 kmh WSW 4.6 mph7.4 kmh 30.13 in1020.3 mb - 0.00 in0.0 mm 0.00 in0.0 mm
11:15 PM 71.6°F22.0°C 71.3°F21.8°C 99% 2.3 mph WSW3.7 kmh WSW 2.3 mph3.7 kmh 30.13 in1020.3 mb - 0.00 in0.0 mm 0.00 in0.0 mm
11:20 PM 71.6°F22.0°C 71.3°F21.8°C 99% 1.2 mph N1.9 kmh N 1.2 mph1.9 kmh 30.15 in1021.0 mb - 0.00 in0.0 mm 0.00 in0.0 mm
11:25 PM 71.6°F22.0°C 71.3°F21.8°C 99% 1.2 mph SW1.9 kmh SW 2.3 mph3.7 kmh 30.15 in1021.0 mb - 0.00 in0.0 mm 0.00 in0.0 mm
11:30 PM 71.6°F22.0°C 71.3°F21.8°C 99% 3.5 mph SW5.6 kmh SW 4.6 mph7.4 kmh 30.19 in1022.4 mb - 0.00 in0.0 mm 0.00 in0.0 mm
11:35 PM 71.6°F22.0°C 71.3°F21.8°C 99% 2.3 mph SW3.7 kmh SW 1.2 mph1.9 kmh 30.19 in1022.4 mb - 0.00 in0.0 mm 0.00 in0.0 mm
11:40 PM 71.6°F22.0°C 71.3°F21.8°C 99% 2.3 mph WSW3.7 kmh WSW 2.3 mph3.7 kmh 30.19 in1022.4 mb - 0.00 in0.0 mm 0.00 in0.0 mm
11:45 PM 71.6°F22.0°C 71.3°F21.8°C 99% 1.2 mph SW1.9 kmh SW 2.3 mph3.7 kmh 30.20 in1022.7 mb - 0.00 in0.0 mm 0.00 in0.0 mm
11:50 PM 71.6°F22.0°C 71.3°F21.8°C 99% 1.2 mph SW1.9 kmh SW 2.3 mph3.7 kmh 30.20 in1022.7 mb - 0.00 in0.0 mm 0.00 in0.0 mm
11:55 PM 71.6°F22.0°C 71.3°F21.8°C 99% 1.2 mph SW1.9 kmh SW 2.3 mph3.7 kmh 30.21 in1023.0 mb - 0.00 in0.0 mm 0.00 in0.0 mm